• Join FlightAware (Why Join?)
  • Login
  • US Flag 
07:59AM EDT


 

Airport Tracker/Info


-or-


 

Live Flight TrackerFlight Track Log ✈ N510SR ✈ 26-Jul-2013 ✈ KLEB - KABE

Flight Track Log - Related Links

Times and Time Zones

All times are in EDT time to prevent confusion due to time zone crossing. See the N510SR flight status page for this flight to view local times or setup timezone preferences in your user account.

Time Position Orientation Groundspeed Altitude Reporting Facility
EDT Latitude Longitude Course Direction KTS MPH feet Rate Location/Type
06:43PM 43.4800 -72.5747 233° Southwest 420 483 12,000  Level Boston Center
06:44PM 43.4150 -72.6831 230° Southwest 398 458 15,100 3,060 Climbing Boston Center
06:45PM 43.3333 -72.8225 231° Southwest 387 445 18,700 2,820 Climbing Boston Center
06:46PM 43.2642 -72.9392 231° Southwest 397 457 21,300 1,440 Climbing Boston Center
06:47PM 43.1886 -73.0694 232° Southwest 415 478 22,000 300 Climbing Boston Center
06:48PM 43.0958 -73.2219 230° Southwest 433 498 22,000  Level Boston Center
06:49PM 43.0219 -73.3544 233° Southwest 438 504 22,000  Level Boston Center
06:50PM 42.9375 -73.4836 228° Southwest 446 513 22,000  Level Boston Center
06:51PM 42.8569 -73.6269 233° Southwest 451 519 22,000  Level Boston Center
06:52PM 42.7828 -73.7414 229° Southwest 445 512 22,000  Level Boston Center
06:53PM 42.7144 -73.8756 235° Southwest 445 512 22,000  Level Boston Center
06:54PM 42.6500 -74.0094 237° Southwest 445 512 22,000  Level Boston Center
06:55PM 42.5769 -74.1600 237° Southwest 440 506 22,000  Level Boston Center
06:56PM 42.5233 -74.2683 236° Southwest 434 499 22,000  Level Boston Center
06:57PM 42.4433 -74.4292 236° Southwest 434 499 22,000  Level Boston Center
06:59PM 42.2947 -74.7236 236° Southwest 437 503 22,000  Level New York Center
07:00PM 42.2256 -74.8567 235° Southwest 437 503 22,000  Level New York Center
07:01PM 42.1319 -74.9794 224° Southwest 432 497 22,000 -840 Level New York Center
07:02PM 42.0350 -75.0711 215° Southwest 432 497 20,400 -1,500 Descending New York Center
07:03PM 41.9344 -75.1453 209° Southwest 426 490 19,000 -1,140 Descending New York Center
07:04PM 41.8444 -75.2117 209° Southwest 418 481 18,200 -1,560 Descending New York Center
07:05PM 41.7458 -75.2858 209° Southwest 413 475 16,000 -2,340 Descending New York Center
07:06PM 41.6431 -75.3619 209° Southwest 403 464 13,500 -2,760 Descending New York Center
07:07PM 41.5531 -75.4281 209° Southwest 389 448 10,600 -2,580 Descending New York Center
07:08PM 41.4800 -75.4839 210° Southwest 346 398 8,400 -1,320 Descending New York Center
07:09PM 41.4103 -75.5094 195° South 297 342 8,000 -240 Descending New York Center
07:10PM 41.3275 -75.4981 174° South 292 336 8,000 -300 Level New York Center
07:11PM 41.2386 -75.4808 172° South 292 336 7,500 -720 Descending New York Center
07:12PM 41.1600 -75.4669 172° South 292 336 6,600 -840 Descending New York Center
07:13PM 41.0833 -75.4533 172° South 286 329 5,900 -840 Descending New York Center
07:14PM 41.0153 -75.4378 170° South 281 323 5,000 -540 Descending New York Center
07:15PM 40.9325 -75.4211 171° South 276 318 4,900 -540 Descending New York Center
07:16PM 40.8606 -75.3969 166° South 276 318 4,000 -660 Descending New York Center
07:17PM 40.8019 -75.3519 150° Southeast 252 290 3,700 -600 Descending New York Center
07:18PM 40.7492 -75.3153 152° Southeast 224 258 2,900 -960 Descending New York Center
07:19PM 40.7058 -75.3592 218° Southwest 178 205 1,800 -840 Descending New York Center
07:20PM 40.6647 -75.3947 213° Southwest 184 212 1,300 4,620 Descending New York Center
07:21PM 40.6217 -75.4328 214° Southwest 184 212 11,000 4,920 Climbing New York Center
07:22PM 40.5783 -75.4708 214° Southwest 184 212 11,000  Level New York Center